Nelson, Canada
Current Conditions -  °F | °C
As of 6:00 AM on Saturday 22 Nov 2014 (Local Time) from CYCG Reporting Station
Overcast Overcast  
Wind Chill: 29°   Ceiling: 6000
Heat Index: 34°   Visibility: 8mi
Dew Point: 34°   Wind: 6mph
Humidity: 100%   Direction: 150°SSE
Pressure: 29.43"   Gusts: NA
Location:  49.48°N, 117.28°W
Report Text: CYCG 221400Z 15005KT 110V180 8SM FEW008 SCT020 BKN060 OVC080 01/01 A2943 RMK SF1SC2SC3AC2 /S05 AFT 00UTC/ SLP981
Loading
Personal Weather Stations






























Interactive Weather Map New forecast layout! Learn more

10-Day Weather Forecast

Advertisements
Track Severe Weather on mobile